Time;durP1;ratioP1;P1;durP2;ratioP2;P2;SDS_P1;SDS_P2;PMS_P1;PMS_P2;Temp;Humidity;BMP_temperature;BMP_pressure;BME280_temperature;BME280_humidity;BME280_pressure;Samples;Min_cycle;Max_cycle;Signal;HPM_P1;HPM_P2
2021/05/19 00:00:46;;;;;;;22.00;9.65;;;11.60;99.90;;;;;;5094580;28;20102;-73
2021/05/19 00:03:12;;;;;;;18.88;10.55;;;11.60;99.90;;;;;;5094556;28;20023;-74
2021/05/19 00:05:39;;;;;;;29.27;11.77;;;11.70;99.90;;;;;;5093881;28;20040;-74
2021/05/19 00:08:05;;;;;;;24.45;11.27;;;11.80;99.90;;;;;;5095007;28;20378;-74
2021/05/19 00:10:31;;;;;;;17.15;9.98;;;11.80;99.90;;;;;;5095125;28;20024;-74
2021/05/19 00:12:56;;;;;;;21.50;10.55;;;11.80;99.90;;;;;;5094880;28;20077;-73
2021/05/19 00:15:22;;;;;;;21.13;9.90;;;11.80;99.90;;;;;;5094879;28;20024;-74
2021/05/19 00:17:47;;;;;;;21.75;10.73;;;11.80;99.90;;;;;;5095768;28;20020;-74
2021/05/19 00:20:15;;;;;;;16.70;9.95;;;11.90;99.90;;;;;;5094588;28;20156;-74
2021/05/19 00:22:41;;;;;;;23.67;10.23;;;11.90;99.90;;;;;;5095523;28;20048;-73
2021/05/19 00:25:08;;;;;;;19.02;9.95;;;11.90;99.90;;;;;;5094527;28;20074;-74
2021/05/19 00:27:34;;;;;;;15.70;8.73;;;11.90;99.90;;;;;;5094916;28;20045;-72
2021/05/19 00:30:02;;;;;;;23.98;10.18;;;11.90;99.90;;;;;;5092386;28;20499;-73
2021/05/19 00:32:28;;;;;;;16.45;9.02;;;11.90;99.90;;;;;;5084837;28;20047;-74
2021/05/19 00:34:53;;;;;;;15.35;8.27;;;11.80;99.90;;;;;;5092935;28;20480;-73
2021/05/19 00:37:19;;;;;;;16.13;8.55;;;11.80;99.90;;;;;;5093471;28;20028;-73
2021/05/19 00:39:45;;;;;;;16.38;8.88;;;11.80;99.90;;;;;;5093814;28;20078;-73
2021/05/19 00:42:14;;;;;;;17.02;8.73;;;11.30;99.90;;;;;;5093184;28;20033;-73
2021/05/19 00:44:40;;;;;;;20.73;8.80;;;11.80;99.90;;;;;;5093610;28;20036;-74
2021/05/19 00:47:05;;;;;;;15.50;9.02;;;11.80;99.90;;;;;;5093411;28;20533;-74
2021/05/19 00:49:31;;;;;;;16.83;8.98;;;11.80;99.90;;;;;;5074306;28;20058;-73
2021/05/19 00:51:57;;;;;;;22.35;9.95;;;11.70;99.90;;;;;;5093635;28;20052;-75
2021/05/19 00:54:23;;;;;;;19.00;9.63;;;11.80;99.90;;;;;;5092282;28;20013;-74
2021/05/19 00:56:49;;;;;;;23.65;8.88;;;11.70;99.90;;;;;;5093600;28;20137;-73
2021/05/19 00:59:16;;;;;;;22.00;8.93;;;11.70;99.90;;;;;;5092917;28;20418;-74
2021/05/19 01:01:42;;;;;;;21.70;9.25;;;11.70;99.90;;;;;;5092742;28;20028;-73
2021/05/19 01:04:08;;;;;;;15.60;8.95;;;11.70;99.90;;;;;;5093581;28;20407;-74
2021/05/19 01:11:44;;;;;;;23.00;9.73;;;11.70;99.90;;;;;;5093596;28;20080;-74
2021/05/19 01:14:10;;;;;;;27.23;9.25;;;11.70;99.90;;;;;;5092173;28;20040;-75
2021/05/19 01:16:36;;;;;;;20.13;9.25;;;11.60;99.90;;;;;;5092212;28;20487;-74
2021/05/19 01:19:02;;;;;;;15.25;9.30;;;11.50;99.90;;;;;;5093009;28;20458;-73
2021/05/19 01:21:28;;;;;;;18.02;8.60;;;11.60;99.90;;;;;;5092852;28;20017;-73
2021/05/19 01:23:54;;;;;;;13.55;7.80;;;11.50;99.90;;;;;;5092038;28;20375;-74
2021/05/19 01:26:19;;;;;;;17.27;7.90;;;11.50;99.90;;;;;;5092766;28;20204;-74
2021/05/19 01:28:45;;;;;;;15.93;8.27;;;11.50;99.90;;;;;;5092454;28;20475;-73
2021/05/19 01:31:11;;;;;;;20.48;9.80;;;11.50;99.90;;;;;;5092023;28;20024;-72
2021/05/19 01:33:39;;;;;;;19.30;8.55;;;11.50;99.90;;;;;;5092508;28;20352;-72
2021/05/19 01:36:05;;;;;;;19.80;9.65;;;11.40;99.90;;;;;;5092865;28;20519;-73
2021/05/19 01:38:33;;;;;;;16.05;8.55;;;11.40;99.90;;;;;;5091650;28;20367;-73
2021/05/19 01:40:59;;;;;;;16.45;9.63;;;11.30;99.90;;;;;;5092830;28;20107;-73
2021/05/19 01:43:29;;;;;;;12.88;9.73;;;11.30;99.90;;;;;;5092085;28;20058;-73
2021/05/19 01:45:57;;;;;;;;;;;11.20;99.90;;;;;;5093157;28;20024;-73
2021/05/19 01:48:24;;;;;;;20.30;11.63;;;11.10;99.90;;;;;;5092549;28;19904;-73
2021/05/19 01:50:50;;;;;;;20.70;11.00;;;11.10;99.90;;;;;;5092137;28;20064;-73
2021/05/19 01:53:16;;;;;;;13.82;10.95;;;11.80;99.90;;;;;;5085775;28;20472;-74
2021/05/19 01:55:42;;;;;;;18.80;12.05;;;10.90;99.90;;;;;;5091767;28;20088;-74
2021/05/19 01:58:08;;;;;;;21.02;11.35;;;10.80;99.90;;;;;;5085710;28;20502;-74
2021/05/19 02:00:33;;;;;;;17.10;11.98;;;10.80;99.90;;;;;;5083990;28;20078;-74
2021/05/19 02:03:03;;;;;;;24.63;13.20;;;10.70;99.90;;;;;;5092142;28;20032;-73
2021/05/19 02:05:30;;;;;;;20.63;12.80;;;10.70;99.90;;;;;;5091279;28;20124;-73
2021/05/19 02:07:57;;;;;;;21.00;12.60;;;10.60;99.90;;;;;;5092116;28;20020;-74
2021/05/19 02:10:23;;;;;;;19.25;14.15;;;10.60;99.90;;;;;;5091710;28;20375;-72
2021/05/19 02:12:49;;;;;;;20.27;13.82;;;10.60;99.90;;;;;;5091520;28;20147;-74
2021/05/19 02:15:21;;;;;;;19.10;13.60;;;10.50;99.90;;;;;;5091616;28;20050;-74
2021/05/19 02:17:47;;;;;;;19.00;13.82;;;10.50;99.90;;;;;;5064886;28;20034;-74
2021/05/19 02:20:16;;;;;;;20.40;15.27;;;10.50;99.90;;;;;;5091134;28;20102;-73
2021/05/19 02:22:42;;;;;;;25.38;16.52;;;10.50;99.90;;;;;;5092103;28;20048;-75
2021/05/19 02:25:09;;;;;;;25.63;14.60;;;10.50;99.90;;;;;;5091940;28;20118;-74
2021/05/19 02:27:35;;;;;;;18.40;14.75;;;10.50;99.90;;;;;;5090601;28;20116;-74
2021/05/19 02:30:06;;;;;;;22.75;15.05;;;10.50;99.90;;;;;;5092263;28;20388;-74
2021/05/19 02:32:32;;;;;;;23.08;14.68;;;10.40;99.90;;;;;;5091773;28;20100;-74
2021/05/19 02:34:58;;;;;;;16.17;13.65;;;10.40;99.90;;;;;;5091368;28;20399;-76
2021/05/19 02:37:24;;;;;;;21.42;15.00;;;10.40;99.90;;;;;;5091686;28;20017;-73
2021/05/19 02:39:49;;;;;;;24.30;14.77;;;10.30;99.90;;;;;;5090843;28;20071;-73
2021/05/19 02:42:15;;;;;;;24.23;15.73;;;10.40;99.90;;;;;;5091447;28;20021;-73
2021/05/19 02:44:41;;;;;;;21.05;15.13;;;10.30;99.90;;;;;;5091615;28;20119;-74
2021/05/19 02:47:07;;;;;;;17.98;13.65;;;10.30;99.90;;;;;;5091328;28;20028;-74
2021/05/19 02:49:32;;;;;;;19.55;13.77;;;10.30;99.90;;;;;;5090097;28;20071;-74
2021/05/19 02:51:58;;;;;;;20.55;13.63;;;10.30;99.90;;;;;;5079028;28;20020;-73
2021/05/19 02:54:24;;;;;;;19.92;13.98;;;10.20;99.90;;;;;;5090771;28;20069;-74
2021/05/19 02:56:50;;;;;;;19.88;13.27;;;10.20;99.90;;;;;;5091812;28;20475;-73
2021/05/19 02:59:18;;;;;;;19.27;14.75;;;10.30;99.90;;;;;;5091693;28;20055;-73
2021/05/19 03:01:44;;;;;;;16.08;12.98;;;10.20;99.90;;;;;;5091182;28;20021;-73
2021/05/19 03:04:10;;;;;;;20.63;12.43;;;10.30;99.90;;;;;;5091712;28;20185;-73
2021/05/19 03:06:35;;;;;;;15.70;12.68;;;10.30;99.90;;;;;;5091461;28;20111;-73
2021/05/19 03:09:01;;;;;;;15.20;12.85;;;10.30;99.90;;;;;;5091152;28;20471;-73
2021/05/19 03:11:27;;;;;;;18.70;11.73;;;10.30;99.90;;;;;;5091333;28;20032;-73
2021/05/19 03:13:52;;;;;;;15.57;12.50;;;10.30;99.90;;;;;;5091729;28;20046;-74
2021/05/19 03:16:18;;;;;;;15.38;12.82;;;10.30;99.90;;;;;;5090675;28;20024;-73
2021/05/19 03:18:44;;;;;;;18.38;12.60;;;10.30;99.90;;;;;;5091468;28;20016;-74
2021/05/19 03:21:10;;;;;;;14.73;12.18;;;10.30;99.90;;;;;;5091755;28;20028;-73
2021/05/19 03:23:35;;;;;;;16.55;12.60;;;10.20;99.90;;;;;;5090355;28;20020;-74
2021/05/19 03:26:01;;;;;;;14.43;12.55;;;10.20;99.90;;;;;;5092017;28;20071;-74
2021/05/19 03:28:26;;;;;;;15.82;12.23;;;10.20;99.90;;;;;;5091310;28;20044;-74
2021/05/19 03:30:52;;;;;;;18.02;13.10;;;10.20;99.90;;;;;;5090811;28;20023;-73
2021/05/19 03:33:20;;;;;;;18.10;12.10;;;10.10;99.90;;;;;;5091213;28;20797;-74
2021/05/19 03:35:46;;;;;;;14.70;12.55;;;10.10;99.90;;;;;;5091466;28;20039;-74
2021/05/19 03:38:12;;;;;;;19.77;12.98;;;10.00;99.90;;;;;;5093316;28;20024;-72
2021/05/19 03:40:38;;;;;;;22.13;13.40;;;10.00;99.90;;;;;;5095315;28;20016;-74
2021/05/19 03:43:04;;;;;;;15.98;12.02;;;9.90;99.90;;;;;;5094497;28;20039;-74
2021/05/19 03:45:30;;;;;;;15.25;11.63;;;9.90;99.90;;;;;;5095101;28;20086;-74
2021/05/19 03:47:56;;;;;;;19.95;12.10;;;9.90;99.90;;;;;;5095127;28;20039;-74
2021/05/19 03:50:25;;;;;;;17.95;10.73;;;10.00;99.90;;;;;;5094151;28;20326;-74
2021/05/19 03:52:52;;;;;;;16.30;11.60;;;10.00;99.90;;;;;;5095069;28;20382;-74
2021/05/19 03:55:18;;;;;;;18.60;11.25;;;10.00;99.90;;;;;;5095038;28;20361;-74
2021/05/19 03:57:43;;;;;;;21.00;11.05;;;10.10;99.90;;;;;;5094708;28;20112;-74
2021/05/19 04:00:15;;;;;;;17.30;10.93;;;10.20;99.90;;;;;;5095248;28;20024;-73
2021/05/19 04:02:45;;;;;;;17.13;10.77;;;10.20;99.90;;;;;;5095453;28;20463;-73
2021/05/19 04:05:11;;;;;;;14.38;9.68;;;10.30;99.90;;;;;;5095307;28;20180;-73
2021/05/19 04:07:36;;;;;;;15.70;10.70;;;10.30;99.90;;;;;;5095723;28;20468;-74
2021/05/19 04:10:02;;;;;;;12.27;8.95;;;10.30;99.90;;;;;;5096690;28;20024;-75
2021/05/19 04:12:28;;;;;;;20.92;10.80;;;10.50;99.90;;;;;;5095512;28;20024;-74
2021/05/19 04:14:53;;;;;;;15.00;10.20;;;10.50;99.90;;;;;;5096681;28;20020;-74
2021/05/19 04:17:19;;;;;;;21.73;9.90;;;10.60;99.90;;;;;;5096133;28;20012;-74
2021/05/19 04:19:45;;;;;;;17.33;8.45;;;10.70;99.90;;;;;;5083715;28;20039;-74
2021/05/19 04:22:10;;;;;;;11.73;9.50;;;10.80;99.90;;;;;;5092462;28;20020;-74
2021/05/19 04:24:36;;;;;;;17.35;9.82;;;10.90;99.90;;;;;;5086433;28;20468;-74
2021/05/19 04:27:02;;;;;;;14.80;9.45;;;11.10;99.90;;;;;;5056096;28;20025;-74
2021/05/19 04:29:27;;;;;;;23.13;9.63;;;11.20;99.90;;;;;;5093949;28;20028;-75
2021/05/19 04:31:53;;;;;;;13.82;9.70;;;11.30;99.90;;;;;;5094005;28;20021;-73
2021/05/19 04:34:19;;;;;;;14.93;9.18;;;11.80;99.90;;;;;;5092864;28;20028;-74
2021/05/19 04:36:44;;;;;;;22.20;9.95;;;11.60;99.90;;;;;;5094237;28;20028;-74
2021/05/19 04:39:10;;;;;;;20.58;10.32;;;11.40;99.90;;;;;;5093770;28;20157;-74
2021/05/19 04:41:36;;;;;;;13.55;9.07;;;11.40;99.90;;;;;;5092945;28;20020;-74
2021/05/19 04:44:04;;;;;;;20.70;9.02;;;11.40;99.90;;;;;;5093467;28;20032;-74
2021/05/19 04:46:30;;;;;;;21.15;10.88;;;11.50;99.90;;;;;;5092868;28;20112;-74
2021/05/19 04:48:59;;;;;;;19.13;10.60;;;11.40;99.90;;;;;;5092341;28;20138;-74
2021/05/19 04:51:26;;;;;;;16.92;9.35;;;11.40;99.90;;;;;;5093541;28;20386;-74
2021/05/19 04:53:52;;;;;;;17.13;9.40;;;11.40;99.90;;;;;;5092965;28;20074;-73
2021/05/19 04:56:17;;;;;;;15.93;9.13;;;11.40;99.90;;;;;;5093181;28;20020;-73
2021/05/19 04:58:43;;;;;;;20.48;9.60;;;11.40;99.90;;;;;;5093476;28;20020;-73
2021/05/19 05:01:09;;;;;;;17.83;10.00;;;11.30;99.90;;;;;;5092571;28;20044;-74
2021/05/19 05:03:34;;;;;;;19.70;10.63;;;11.30;99.90;;;;;;5092810;28;20106;-73
2021/05/19 05:06:00;;;;;;;21.20;10.90;;;11.30;99.90;;;;;;5093058;28;20082;-74
2021/05/19 05:08:25;;;;;;;20.38;10.25;;;11.30;99.90;;;;;;5092479;28;20078;-74
2021/05/19 05:10:51;;;;;;;21.48;10.75;;;11.20;99.90;;;;;;5093262;28;20066;-74
2021/05/19 05:13:16;;;;;;;20.60;11.05;;;11.20;99.90;;;;;;5093252;28;20074;-74
2021/05/19 05:15:42;;;;;;;28.13;12.48;;;11.30;99.90;;;;;;5092139;28;20024;-73
2021/05/19 05:18:07;;;;;;;28.25;13.57;;;11.40;99.90;;;;;;5092927;28;20021;-74
2021/05/19 05:20:33;;;;;;;25.13;13.07;;;11.40;99.90;;;;;;5092617;28;20034;-74
2021/05/19 05:22:59;;;;;;;20.63;12.07;;;11.60;99.90;;;;;;5092641;28;20023;-76
2021/05/19 05:25:25;;;;;;;33.28;14.23;;;11.70;99.90;;;;;;5092527;28;20468;-75
2021/05/19 05:27:50;;;;;;;25.00;13.02;;;11.80;99.90;;;;;;5092655;28;20047;-74
2021/05/19 05:30:17;;;;;;;28.67;14.82;;;11.90;99.90;;;;;;5091811;28;20034;-74
2021/05/19 05:32:43;;;;;;;27.45;13.57;;;11.90;99.90;;;;;;5092448;28;20017;-74
2021/05/19 05:35:10;;;;;;;31.83;15.75;;;11.90;99.90;;;;;;5092778;28;20034;-74
2021/05/19 05:37:36;;;;;;;36.40;15.23;;;11.90;99.90;;;;;;5091952;28;20419;-74
2021/05/19 05:40:03;;;;;;;34.88;16.00;;;12.00;99.90;;;;;;5092992;28;20024;-74
2021/05/19 05:42:29;;;;;;;26.73;15.23;;;12.00;99.90;;;;;;5092706;28;20050;-74
2021/05/19 05:44:54;;;;;;;32.15;16.15;;;12.10;99.90;;;;;;5091944;28;20032;-75
2021/05/19 05:47:20;;;;;;;23.05;15.55;;;12.20;99.90;;;;;;5092032;28;20079;-74
2021/05/19 05:49:45;;;;;;;28.50;16.77;;;12.30;99.90;;;;;;5085514;28;20135;-74
2021/05/19 05:52:11;;;;;;;31.05;16.67;;;12.30;99.90;;;;;;5063931;28;20029;-74
2021/05/19 05:54:37;;;;;;;30.88;17.00;;;12.30;99.90;;;;;;5062614;28;20464;-74
2021/05/19 05:57:03;;;;;;;29.67;17.20;;;12.30;99.90;;;;;;5053018;28;20024;-74
2021/05/19 05:59:29;;;;;;;30.48;16.73;;;12.30;99.90;;;;;;5057452;28;20031;-75
2021/05/19 06:01:55;;;;;;;27.27;16.13;;;12.20;99.90;;;;;;5061166;28;20036;-73
2021/05/19 06:04:21;;;;;;;27.48;17.67;;;12.20;99.90;;;;;;5055518;28;20036;-75
2021/05/19 06:06:46;;;;;;;31.05;16.77;;;12.20;99.90;;;;;;5061127;28;20381;-74
2021/05/19 06:09:12;;;;;;;26.38;15.77;;;12.10;99.90;;;;;;5054926;28;20059;-74
2021/05/19 06:11:38;;;;;;;25.85;16.80;;;12.10;99.90;;;;;;5064228;28;20487;-74
2021/05/19 06:14:04;;;;;;;26.92;15.13;;;12.10;99.90;;;;;;5057584;28;20025;-76
2021/05/19 06:16:29;;;;;;;31.83;15.43;;;12.20;99.90;;;;;;5055581;28;20028;-75
2021/05/19 06:18:55;;;;;;;32.72;17.73;;;12.20;99.90;;;;;;5062801;28;20015;-74
2021/05/19 06:21:20;;;;;;;31.80;16.98;;;12.30;99.90;;;;;;5060534;28;20098;-73
2021/05/19 06:23:46;;;;;;;26.40;16.23;;;12.50;99.90;;;;;;5059339;28;20025;-74
2021/05/19 06:26:12;;;;;;;23.83;16.80;;;12.60;99.90;;;;;;5053905;28;20526;-74
2021/05/19 06:28:37;;;;;;;24.33;16.27;;;12.80;99.90;;;;;;5059193;28;20036;-74
2021/05/19 06:31:03;;;;;;;26.27;15.73;;;13.00;99.90;;;;;;5071383;28;20077;-74
2021/05/19 06:33:28;;;;;;;28.25;16.08;;;13.20;99.90;;;;;;5071636;28;20139;-74
2021/05/19 06:35:54;;;;;;;29.80;17.58;;;13.40;99.90;;;;;;5072884;28;20021;-74
2021/05/19 06:38:19;;;;;;;27.00;16.48;;;13.50;99.90;;;;;;5072000;28;20035;-74
2021/05/19 06:40:45;;;;;;;26.33;16.35;;;13.70;99.90;;;;;;5074177;28;20496;-73
2021/05/19 06:43:11;;;;;;;24.70;15.48;;;13.80;99.90;;;;;;5072057;28;20376;-72
2021/05/19 06:45:36;;;;;;;27.63;16.67;;;14.00;99.90;;;;;;5072861;28;20032;-73
2021/05/19 06:48:02;;;;;;;25.42;15.43;;;14.00;99.90;;;;;;5070116;28;20047;-73
2021/05/19 06:50:28;;;;;;;31.05;15.90;;;14.00;99.90;;;;;;5075504;28;20036;-74
2021/05/19 06:52:53;;;;;;;30.73;17.00;;;14.10;99.90;;;;;;5065273;28;20070;-74
2021/05/19 06:55:19;;;;;;;26.25;15.60;;;14.20;99.90;;;;;;5071127;28;20066;-74
2021/05/19 06:57:45;;;;;;;22.05;14.80;;;14.20;99.90;;;;;;5074554;28;20030;-73
2021/05/19 07:00:11;;;;;;;28.27;15.77;;;14.30;99.90;;;;;;5071704;28;20024;-73
2021/05/19 07:02:37;;;;;;;26.77;16.58;;;14.30;99.90;;;;;;5082629;28;20024;-73
2021/05/19 07:05:05;;;;;;;27.52;16.95;;;14.30;99.90;;;;;;5071462;28;20112;-73
2021/05/19 07:07:31;;;;;;;30.73;17.00;;;14.30;99.90;;;;;;5075395;28;20045;-73
2021/05/19 07:09:57;;;;;;;25.70;15.18;;;14.30;99.90;;;;;;5075572;28;20490;-73
2021/05/19 07:12:25;;;;;;;26.90;16.83;;;14.40;99.90;;;;;;5075659;28;20024;-75
2021/05/19 07:14:56;;;;;;;26.70;16.60;;;14.40;99.90;;;;;;5069649;28;20075;-74
2021/05/19 07:17:21;;;;;;;29.50;16.27;;;14.50;99.90;;;;;;5078334;28;20039;-74
2021/05/19 07:19:47;;;;;;;32.92;16.05;;;14.60;99.90;;;;;;5090407;28;20028;-74
2021/05/19 07:22:12;;;;;;;21.42;14.82;;;14.70;99.90;;;;;;5087332;28;20070;-73
2021/05/19 07:24:38;;;;;;;17.67;13.95;;;14.80;99.90;;;;;;5089485;28;20047;-73
2021/05/19 07:27:04;;;;;;;23.30;16.33;;;14.90;99.90;;;;;;5071872;28;20024;-74
2021/05/19 07:29:30;;;;;;;23.05;15.13;;;15.00;99.90;;;;;;5085839;28;20051;-74
2021/05/19 07:31:57;;;;;;;23.23;14.13;;;15.00;99.90;;;;;;5091577;28;20103;-73
2021/05/19 07:34:23;;;;;;;21.20;14.32;;;15.00;99.90;;;;;;5085820;28;20020;-74
2021/05/19 07:36:49;;;;;;;25.50;14.60;;;15.00;99.90;;;;;;5083844;28;20074;-73
2021/05/19 07:39:14;;;;;;;30.33;13.30;;;15.20;99.90;;;;;;5083552;28;20016;-74
2021/05/19 07:41:40;;;;;;;26.85;14.20;;;15.40;99.90;;;;;;5088587;28;20141;-74
2021/05/19 07:44:07;;;;;;;20.40;13.52;;;15.60;99.90;;;;;;5087780;28;20087;-74
2021/05/19 07:46:33;;;;;;;24.25;14.50;;;15.80;99.90;;;;;;5086141;28;20545;-73
2021/05/19 07:48:59;;;;;;;20.67;13.13;;;16.00;99.90;;;;;;5090413;28;20028;-75
2021/05/19 07:51:26;;;;;;;18.05;12.52;;;16.30;99.90;;;;;;5075639;28;20093;-74
2021/05/19 07:53:53;;;;;;;17.27;12.55;;;16.40;99.90;;;;;;5082370;28;20023;-74
2021/05/19 07:56:23;;;;;;;17.88;13.38;;;16.50;99.90;;;;;;5077113;28;20031;-75
2021/05/19 07:58:55;;;;;;;25.33;13.45;;;16.70;99.90;;;;;;5081761;28;20020;-75
2021/05/19 08:04:07;;;;;;;21.65;12.27;;;16.80;99.90;;;;;;5069791;28;20040;-75
2021/05/19 08:06:34;;;;;;;23.30;13.40;;;16.80;99.90;;;;;;5094825;28;20028;-74
2021/05/19 08:09:00;;;;;;;25.90;14.40;;;16.80;99.90;;;;;;5094459;28;20062;-75
2021/05/19 08:11:25;;;;;;;19.77;14.30;;;16.70;99.90;;;;;;5086777;28;20055;-74
2021/05/19 08:13:51;;;;;;;22.58;13.75;;;16.50;99.90;;;;;;5078964;28;20020;-76
2021/05/19 08:16:17;;;;;;;24.95;14.27;;;16.40;99.90;;;;;;5077468;28;20025;-74
2021/05/19 08:18:43;;;;;;;18.42;12.68;;;16.30;99.90;;;;;;5079112;28;20060;-73
2021/05/19 08:21:09;;;;;;;20.73;13.63;;;16.20;99.90;;;;;;5078977;28;20027;-73
2021/05/19 08:23:35;;;;;;;21.92;13.35;;;16.00;99.90;;;;;;5078080;28;20390;-73
2021/05/19 08:26:01;;;;;;;20.83;13.00;;;15.90;99.90;;;;;;5079069;28;20514;-74
2021/05/19 08:28:26;;;;;;;19.08;12.10;;;15.80;99.90;;;;;;5076832;28;20131;-73
2021/05/19 08:30:52;;;;;;;23.08;12.18;;;15.80;99.90;;;;;;5080064;28;20021;-73
2021/05/19 08:33:18;;;;;;;21.42;12.13;;;15.90;99.90;;;;;;5076218;28;20020;-73
2021/05/19 08:35:44;;;;;;;18.38;11.13;;;15.80;99.90;;;;;;5079872;28;20029;-74
2021/05/19 08:38:09;;;;;;;18.63;11.93;;;15.60;99.90;;;;;;5078198;28;20357;-73
2021/05/19 08:40:37;;;;;;;26.17;10.88;;;15.60;99.90;;;;;;5076256;28;20459;-73
2021/05/19 08:43:03;;;;;;;17.55;9.88;;;15.50;99.90;;;;;;5078619;28;20444;-73
2021/05/19 08:45:29;;;;;;;23.02;11.80;;;15.50;99.90;;;;;;5074897;28;20124;-74
2021/05/19 08:48:02;;;;;;;22.35;10.63;;;15.40;99.90;;;;;;5079862;28;20107;-74
2021/05/19 08:50:29;;;;;;;16.08;10.18;;;14.90;99.90;;;;;;5076500;28;20028;-74
2021/05/19 08:52:59;;;;;;;13.55;9.80;;;15.20;99.90;;;;;;5075376;28;20023;-73
2021/05/19 08:55:26;;;;;;;18.27;11.48;;;15.10;99.90;;;;;;5076357;28;20111;-75
2021/05/19 08:57:51;;;;;;;16.98;9.95;;;14.80;99.90;;;;;;5072665;28;20055;-75
2021/05/19 09:00:19;;;;;;;15.45;9.45;;;14.90;99.90;;;;;;5075662;28;20068;-74
2021/05/19 09:03:03;;;;;;;11.85;7.82;;;14.70;99.90;;;;;;5061657;28;20131;-74
2021/05/19 09:05:33;;;;;;;14.60;7.85;;;14.60;99.90;;;;;;5056629;28;20035;-74
2021/05/19 09:08:09;;;;;;;11.38;8.57;;;14.60;99.90;;;;;;5070806;28;20029;-74
2021/05/19 09:10:37;;;;;;;2.67;2.40;;;14.50;99.90;;;;;;5070890;28;20330;-74
2021/05/19 09:13:27;;;;;;;3.47;2.22;;;14.20;99.90;;;;;;5071168;28;20025;-73
2021/05/19 09:15:53;;;;;;;3.70;1.48;;;13.80;99.90;;;;;;5067395;28;20072;-73
2021/05/19 09:18:18;;;;;;;5.75;1.77;;;13.40;99.90;;;;;;5071065;28;20527;-75
2021/05/19 09:20:51;;;;;;;1.52;1.20;;;13.10;99.90;;;;;;5070408;28;20067;-74
2021/05/19 09:23:22;;;;;;;4.75;1.40;;;12.80;99.90;;;;;;5070088;28;20032;-74
2021/05/19 09:26:09;;;;;;;4.47;1.95;;;12.60;99.90;;;;;;5072695;28;20060;-75
2021/05/19 09:28:34;;;;;;;12.07;3.25;;;12.40;99.90;;;;;;5064122;28;20052;-74
2021/05/19 09:31:00;;;;;;;8.38;2.50;;;12.90;99.90;;;;;;5071336;28;20024;-74
2021/05/19 09:33:28;;;;;;;9.00;3.33;;;11.30;99.90;;;;;;5070582;28;20037;-74
2021/05/19 09:36:21;;;;;;;8.77;3.50;;;10.90;99.90;;;;;;5069396;28;20025;-74
2021/05/19 09:38:53;;;;;;;8.52;3.10;;;10.60;99.90;;;;;;5071132;28;20046;-74
2021/05/19 09:41:27;;;;;;;6.38;2.60;;;10.50;99.90;;;;;;5068145;28;20029;-74
2021/05/19 09:43:56;;;;;;;5.80;2.92;;;10.50;99.90;;;;;;5069252;28;20055;-74
2021/05/19 09:49:19;;;;;;;8.35;3.97;;;10.60;99.90;;;;;;5063582;28;20020;-73
2021/05/19 09:51:53;;;;;;;8.25;3.00;;;10.70;99.90;;;;;;5063074;28;20032;-74
2021/05/19 09:54:25;;;;;;;6.57;3.10;;;10.90;99.90;;;;;;5070838;28;20021;-74
2021/05/19 09:56:57;;;;;;;9.60;3.35;;;11.10;99.90;;;;;;5070724;28;20107;-74
2021/05/19 09:59:23;;;;;;;6.28;2.72;;;11.30;99.90;;;;;;5071100;28;20115;-74
2021/05/19 10:01:50;;;;;;;4.72;2.92;;;11.50;99.90;;;;;;5070362;28;20481;-74
2021/05/19 10:04:18;;;;;;;8.85;3.00;;;11.30;99.90;;;;;;5079457;28;20476;-76
2021/05/19 10:06:44;;;;;;;6.18;3.20;;;11.90;99.90;;;;;;5068791;28;20020;-74
2021/05/19 10:09:09;;;;;;;5.50;2.80;;;12.20;99.90;;;;;;5072136;28;20499;-73
2021/05/19 10:11:35;;;;;;;5.18;2.72;;;12.40;99.90;;;;;;5072217;28;20075;-75
2021/05/19 10:14:03;;;;;;;3.13;2.47;;;12.60;99.90;;;;;;5071695;28;20048;-74
2021/05/19 10:16:30;;;;;;;2.75;2.47;;;12.80;99.90;;;;;;5071407;28;20025;-73
2021/05/19 10:18:57;;;;;;;6.45;2.67;;;13.10;99.90;;;;;;5073559;28;20420;-73
2021/05/19 10:21:30;;;;;;;3.40;2.30;;;13.30;99.90;;;;;;5073853;28;20025;-73
2021/05/19 10:24:08;;;;;;;5.88;2.53;;;13.60;99.90;;;;;;5073985;28;20043;-73
2021/05/19 10:27:00;;;;;;;2.42;2.20;;;13.80;99.90;;;;;;5081835;28;20182;-75
2021/05/19 10:29:51;;;;;;;2.40;2.05;;;14.00;99.90;;;;;;5078394;28;20043;-74
2021/05/19 10:32:28;;;;;;;3.65;1.60;;;14.00;99.90;;;;;;5069954;28;20020;-74
2021/05/19 10:34:57;;;;;;;2.08;1.58;;;14.00;99.90;;;;;;5080576;28;20027;-75
2021/05/19 10:37:31;;;;;;;3.83;1.67;;;13.80;99.90;;;;;;5076380;28;20025;-75
2021/05/19 10:40:17;;;;;;;1.27;1.10;;;13.50;99.90;;;;;;5071576;28;20499;-75
2021/05/19 10:42:58;;;;;;;1.88;1.10;;;13.30;99.90;;;;;;5064230;28;20082;-74
2021/05/19 10:45:24;;;;;;;2.10;1.20;;;13.00;99.90;;;;;;5070915;28;20111;-74
2021/05/19 10:47:50;;;;;;;6.38;1.65;;;13.20;99.90;;;;;;5077989;28;20017;-74
2021/05/19 10:50:30;;;;;;;2.60;1.40;;;13.30;99.90;;;;;;5070951;28;20031;-75
2021/05/19 11:01:12;;;;;;;1.73;1.08;;;13.40;99.90;;;;;;5083553;28;20031;-76
2021/05/19 11:03:40;;;;;;;2.38;0.70;;;13.30;99.90;;;;;;5094636;28;20128;-75
2021/05/19 11:06:08;;;;;;;2.70;0.80;;;13.20;99.90;;;;;;5096342;28;20032;-76
2021/05/19 11:08:37;;;;;;;1.75;0.82;;;13.10;99.90;;;;;;5096133;28;20484;-74
2021/05/19 11:11:33;;;;;;;1.55;0.52;;;13.00;99.90;;;;;;5096304;28;20122;-75
2021/05/19 11:14:25;;;;;;;1.73;0.80;;;13.10;99.90;;;;;;5096794;28;20054;-76
2021/05/19 11:17:19;;;;;;;0.70;0.70;;;13.10;99.90;;;;;;5096229;28;20035;-76
2021/05/19 11:19:45;;;;;;;5.47;0.90;;;13.20;99.90;;;;;;5084584;28;20104;-75
2021/05/19 11:22:15;;;;;;;0.77;0.50;;;13.20;99.90;;;;;;5076508;28;20110;-75
2021/05/19 11:24:54;;;;;;;;;;;13.30;99.90;;;;;;5076853;28;20029;-75
2021/05/19 11:27:22;;;;;;;1.35;0.35;;;13.30;99.90;;;;;;5076856;28;19924;-75
2021/05/19 11:29:48;;;;;;;1.10;0.35;;;13.40;99.90;;;;;;5074813;28;20078;-75
2021/05/19 11:32:35;;;;;;;11.50;0.55;;;13.40;99.90;;;;;;5074572;28;20036;-75
2021/05/19 11:35:21;;;;;;;1.50;0.70;;;13.50;99.90;;;;;;5073876;28;20024;-75
2021/05/19 11:37:54;;;;;;;2.38;1.02;;;13.60;99.90;;;;;;5074578;28;20033;-74
2021/05/19 11:40:21;;;;;;;1.17;0.93;;;13.70;99.90;;;;;;5074674;28;20036;-75
2021/05/19 11:42:55;;;;;;;2.80;1.35;;;13.80;99.90;;;;;;5074174;28;20040;-74
2021/05/19 11:45:24;;;;;;;0.85;0.80;;;13.90;99.90;;;;;;5076755;28;20040;-76
2021/05/19 11:47:49;;;;;;;3.33;1.10;;;14.10;99.90;;;;;;5079091;28;20087;-76
2021/05/19 11:50:32;;;;;;;2.30;0.85;;;14.20;99.90;;;;;;5077361;28;20061;-76
2021/05/19 11:53:09;;;;;;;2.78;1.00;;;14.30;99.90;;;;;;5078256;28;20017;-76
2021/05/19 11:55:46;;;;;;;2.05;0.88;;;14.50;99.90;;;;;;5075452;28;20029;-74
2021/05/19 11:58:23;;;;;;;3.67;1.27;;;14.60;99.90;;;;;;5076161;28;20115;-74
2021/05/19 12:01:03;;;;;;;1.85;1.23;;;14.80;99.90;;;;;;5077407;28;20047;-74
2021/05/19 12:03:31;;;;;;;1.80;1.00;;;15.10;99.90;;;;;;5088193;28;20028;-76
2021/05/19 12:06:07;;;;;;;4.78;1.40;;;15.40;99.90;;;;;;5095216;28;20048;-75
2021/05/19 12:08:40;;;;;;;2.08;1.10;;;15.70;99.90;;;;;;5094390;28;20111;-76
2021/05/19 12:11:09;;;;;;;2.75;1.30;;;16.10;99.90;;;;;;5095026;28;20032;-76
2021/05/19 12:13:37;;;;;;;1.90;1.08;;;16.40;99.90;;;;;;5094527;28;20217;-77
2021/05/19 12:16:08;;;;;;;1.20;0.90;;;16.40;99.90;;;;;;5095590;28;20020;-77
2021/05/19 12:18:34;;;;;;;1.77;1.00;;;16.40;99.90;;;;;;5093568;28;20380;-77
2021/05/19 12:21:07;;;;;;;1.38;1.05;;;16.40;99.90;;;;;;5094325;28;20028;-76
2021/05/19 12:23:36;;;;;;;1.33;0.73;;;16.40;99.90;;;;;;5093694;28;20131;-75
2021/05/19 12:26:01;;;;;;;2.05;1.00;;;16.40;99.90;;;;;;5095324;28;20085;-77
2021/05/19 12:28:27;;;;;;;0.95;0.73;;;16.40;99.90;;;;;;5095031;28;20044;-76
2021/05/19 12:30:58;;;;;;;0.77;0.63;;;16.50;99.90;;;;;;5094589;28;20031;-77
2021/05/19 12:33:26;;;;;;;1.02;0.73;;;16.60;99.90;;;;;;5094787;28;20054;-77
2021/05/19 12:35:52;;;;;;;0.63;0.60;;;16.70;99.90;;;;;;5094337;28;20498;-77
2021/05/19 12:38:24;;;;;;;1.23;0.80;;;16.90;99.90;;;;;;5093626;28;20020;-77
2021/05/19 12:40:51;;;;;;;1.05;0.70;;;17.10;99.90;;;;;;5094046;28;20027;-77
2021/05/19 12:43:24;;;;;;;0.40;0.40;;;17.10;99.90;;;;;;5074971;28;20119;-76
2021/05/19 12:45:51;;;;;;;1.48;0.90;;;17.20;99.90;;;;;;5061010;28;20059;-76
2021/05/19 12:48:20;;;;;;;1.15;0.95;;;17.00;99.90;;;;;;5058458;28;20028;-76
2021/05/19 12:50:51;;;;;;;2.80;0.80;;;16.90;99.90;;;;;;5058053;28;20060;-76
2021/05/19 12:53:36;;;;;;;2.67;1.30;;;16.80;99.90;;;;;;5068091;28;20039;-75
2021/05/19 12:56:10;;;;;;;1.20;1.05;;;16.80;99.90;;;;;;5079120;28;20093;-76
2021/05/19 12:59:05;;;;;;;2.05;1.20;;;16.70;99.90;;;;;;5086019;28;20031;-77